sensor_id;sensor_type;location;lat;lon;timestamp;pressure;altitude;pressure_sealevel;temperature;humidity
46642;BME280;32370;41.864;-88.124;2023-03-15T00:01:24;99984.00;;;-1.75;45.50
46642;BME280;32370;41.864;-88.124;2023-03-15T00:03:53;99978.67;;;-1.85;46.61
46642;BME280;32370;41.864;-88.124;2023-03-15T00:06:21;99975.10;;;-1.33;46.78
46642;BME280;32370;41.864;-88.124;2023-03-15T00:08:49;99966.28;;;-1.55;46.31
46642;BME280;32370;41.864;-88.124;2023-03-15T00:11:18;99959.33;;;-1.49;45.86
46642;BME280;32370;41.864;-88.124;2023-03-15T00:13:46;99960.74;;;-1.41;45.46
46642;BME280;32370;41.864;-88.124;2023-03-15T00:16:15;99960.59;;;-1.68;45.89
46642;BME280;32370;41.864;-88.124;2023-03-15T00:18:43;99960.75;;;-2.00;47.14
46642;BME280;32370;41.864;-88.124;2023-03-15T00:21:11;99956.37;;;-1.72;47.13
46642;BME280;32370;41.864;-88.124;2023-03-15T00:23:39;99959.65;;;-1.69;46.81
46642;BME280;32370;41.864;-88.124;2023-03-15T00:26:08;99964.43;;;-1.93;46.97
46642;BME280;32370;41.864;-88.124;2023-03-15T00:28:36;99966.05;;;-2.30;47.11
46642;BME280;32370;41.864;-88.124;2023-03-15T00:31:06;99968.87;;;-2.82;49.02
46642;BME280;32370;41.864;-88.124;2023-03-15T00:33:34;99972.70;;;-3.13;49.42
46642;BME280;32370;41.864;-88.124;2023-03-15T00:36:04;99968.06;;;-3.09;50.67
46642;BME280;32370;41.864;-88.124;2023-03-15T00:38:32;99963.57;;;-2.77;49.96
46642;BME280;32370;41.864;-88.124;2023-03-15T00:41:05;99965.73;;;-2.81;49.26
46642;BME280;32370;41.864;-88.124;2023-03-15T00:43:33;99966.68;;;-3.19;49.54
46642;BME280;32370;41.864;-88.124;2023-03-15T00:46:01;99966.82;;;-2.31;48.67
46642;BME280;32370;41.864;-88.124;2023-03-15T00:48:29;99964.13;;;-2.07;48.39
46642;BME280;32370;41.864;-88.124;2023-03-15T00:51:03;99965.27;;;-2.47;50.49
46642;BME280;32370;41.864;-88.124;2023-03-15T00:53:32;99966.48;;;-2.19;49.75
46642;BME280;32370;41.864;-88.124;2023-03-15T00:56:04;99966.48;;;-2.59;50.30
46642;BME280;32370;41.864;-88.124;2023-03-15T00:58:32;99966.91;;;-2.94;50.90
46642;BME280;32370;41.864;-88.124;2023-03-15T01:01:03;99963.73;;;-1.99;50.10
46642;BME280;32370;41.864;-88.124;2023-03-15T01:03:31;99964.72;;;-2.08;49.76
46642;BME280;32370;41.864;-88.124;2023-03-15T01:06:04;99967.09;;;-1.65;49.13
46642;BME280;32370;41.864;-88.124;2023-03-15T01:08:32;99966.26;;;-1.56;49.23
46642;BME280;32370;41.864;-88.124;2023-03-15T01:11:02;99965.90;;;-1.65;49.49
46642;BME280;32370;41.864;-88.124;2023-03-15T01:13:31;99968.38;;;-1.97;50.20
46642;BME280;32370;41.864;-88.124;2023-03-15T01:15:59;99973.22;;;-2.01;50.42
46642;BME280;32370;41.864;-88.124;2023-03-15T01:18:27;99976.81;;;-2.57;51.37
46642;BME280;32370;41.864;-88.124;2023-03-15T01:20:55;99974.22;;;-2.79;52.77
46642;BME280;32370;41.864;-88.124;2023-03-15T01:23:23;99976.90;;;-3.25;53.41
46642;BME280;32370;41.864;-88.124;2023-03-15T01:25:51;99975.75;;;-3.29;53.91
46642;BME280;32370;41.864;-88.124;2023-03-15T01:28:20;99978.34;;;-3.22;54.18
46642;BME280;32370;41.864;-88.124;2023-03-15T01:30:50;99977.71;;;-3.40;53.03
46642;BME280;32370;41.864;-88.124;2023-03-15T01:33:18;99982.33;;;-3.00;52.72
46642;BME280;32370;41.864;-88.124;2023-03-15T01:35:46;99984.23;;;-3.20;52.79
46642;BME280;32370;41.864;-88.124;2023-03-15T01:38:14;99992.32;;;-3.16;52.93
46642;BME280;32370;41.864;-88.124;2023-03-15T01:40:43;99994.89;;;-3.44;54.23
46642;BME280;32370;41.864;-88.124;2023-03-15T01:43:15;99995.88;;;-2.92;56.55
46642;BME280;32370;41.864;-88.124;2023-03-15T01:46:04;99998.33;;;-3.21;56.92
46642;BME280;32370;41.864;-88.124;2023-03-15T01:48:36;100003.07;;;-3.16;57.36
46642;BME280;32370;41.864;-88.124;2023-03-15T01:51:10;100003.01;;;-3.49;58.14
46642;BME280;32370;41.864;-88.124;2023-03-15T01:53:41;100000.04;;;-3.32;57.64
46642;BME280;32370;41.864;-88.124;2023-03-15T01:56:11;99993.68;;;-3.11;57.70
46642;BME280;32370;41.864;-88.124;2023-03-15T01:58:40;99994.88;;;-3.43;58.17
46642;BME280;32370;41.864;-88.124;2023-03-15T02:01:10;99993.20;;;-3.19;57.32
46642;BME280;32370;41.864;-88.124;2023-03-15T02:03:42;99992.42;;;-2.85;57.39
46642;BME280;32370;41.864;-88.124;2023-03-15T02:06:15;99992.38;;;-2.68;57.14
46642;BME280;32370;41.864;-88.124;2023-03-15T02:08:48;99993.28;;;-2.67;57.86
46642;BME280;32370;41.864;-88.124;2023-03-15T02:11:20;99989.78;;;-3.06;58.27
46642;BME280;32370;41.864;-88.124;2023-03-15T02:13:49;99988.43;;;-3.70;59.85
46642;BME280;32370;41.864;-88.124;2023-03-15T02:16:20;99992.57;;;-3.61;60.10
46642;BME280;32370;41.864;-88.124;2023-03-15T02:18:48;99987.20;;;-3.23;59.81
46642;BME280;32370;41.864;-88.124;2023-03-15T02:21:29;99988.70;;;-3.27;59.19
46642;BME280;32370;41.864;-88.124;2023-03-15T02:24:06;99990.97;;;-3.37;59.42
46642;BME280;32370;41.864;-88.124;2023-03-15T02:26:40;99986.31;;;-3.49;59.63
46642;BME280;32370;41.864;-88.124;2023-03-15T02:29:12;99985.71;;;-3.29;59.25
46642;BME280;32370;41.864;-88.124;2023-03-15T02:31:40;99987.55;;;-3.46;59.67
46642;BME280;32370;41.864;-88.124;2023-03-15T02:34:09;99996.37;;;-3.47;59.37
46642;BME280;32370;41.864;-88.124;2023-03-15T02:36:37;99996.23;;;-3.50;60.03
46642;BME280;32370;41.864;-88.124;2023-03-15T02:39:14;99997.59;;;-3.57;60.29
46642;BME280;32370;41.864;-88.124;2023-03-15T02:41:45;99999.26;;;-4.26;62.19
46642;BME280;32370;41.864;-88.124;2023-03-15T02:44:17;100001.96;;;-4.14;63.83
46642;BME280;32370;41.864;-88.124;2023-03-15T02:46:48;100008.60;;;-4.22;63.85
46642;BME280;32370;41.864;-88.124;2023-03-15T02:49:18;100002.10;;;-4.73;65.86
46642;BME280;32370;41.864;-88.124;2023-03-15T02:51:46;100004.82;;;-4.79;66.35
46642;BME280;32370;41.864;-88.124;2023-03-15T02:54:14;100011.50;;;-4.57;65.47
46642;BME280;32370;41.864;-88.124;2023-03-15T02:56:42;100008.76;;;-4.20;64.77
46642;BME280;32370;41.864;-88.124;2023-03-15T02:59:10;100003.40;;;-4.23;63.88
46642;BME280;32370;41.864;-88.124;2023-03-15T03:01:38;100005.67;;;-4.20;63.41
46642;BME280;32370;41.864;-88.124;2023-03-15T03:04:06;100007.66;;;-4.23;64.47
46642;BME280;32370;41.864;-88.124;2023-03-15T03:06:35;100001.02;;;-4.20;63.49
46642;BME280;32370;41.864;-88.124;2023-03-15T03:09:03;100002.44;;;-4.41;64.68
46642;BME280;32370;41.864;-88.124;2023-03-15T03:11:31;100002.47;;;-4.59;65.26
46642;BME280;32370;41.864;-88.124;2023-03-15T03:13:59;99998.19;;;-3.99;64.77
46642;BME280;32370;41.864;-88.124;2023-03-15T03:16:27;99999.26;;;-4.24;64.71
46642;BME280;32370;41.864;-88.124;2023-03-15T03:18:55;100003.30;;;-4.47;64.46
46642;BME280;32370;41.864;-88.124;2023-03-15T03:21:23;100009.65;;;-4.29;63.98
46642;BME280;32370;41.864;-88.124;2023-03-15T03:23:52;100007.68;;;-4.66;64.04
46642;BME280;32370;41.864;-88.124;2023-03-15T03:26:20;100007.24;;;-4.06;64.88
46642;BME280;32370;41.864;-88.124;2023-03-15T03:28:48;100005.25;;;-4.78;67.22
46642;BME280;32370;41.864;-88.124;2023-03-15T03:31:19;100006.11;;;-4.76;65.89
46642;BME280;32370;41.864;-88.124;2023-03-15T03:33:48;100007.65;;;-4.69;66.10
46642;BME280;32370;41.864;-88.124;2023-03-15T03:36:17;100005.49;;;-4.93;67.04
46642;BME280;32370;41.864;-88.124;2023-03-15T03:38:46;100008.91;;;-5.10;67.80
46642;BME280;32370;41.864;-88.124;2023-03-15T03:41:14;99999.97;;;-5.42;66.97
46642;BME280;32370;41.864;-88.124;2023-03-15T03:43:43;99995.75;;;-4.91;66.68
46642;BME280;32370;41.864;-88.124;2023-03-15T03:46:10;99990.88;;;-4.58;65.70
46642;BME280;32370;41.864;-88.124;2023-03-15T03:48:38;99992.52;;;-4.62;65.94
46642;BME280;32370;41.864;-88.124;2023-03-15T03:51:06;99992.84;;;-5.23;66.22
46642;BME280;32370;41.864;-88.124;2023-03-15T03:53:35;99990.89;;;-5.11;66.88
46642;BME280;32370;41.864;-88.124;2023-03-15T03:56:04;99994.09;;;-4.99;66.75
46642;BME280;32370;41.864;-88.124;2023-03-15T03:58:33;99994.72;;;-5.17;66.97
46642;BME280;32370;41.864;-88.124;2023-03-15T04:01:00;99992.89;;;-5.04;67.78
46642;BME280;32370;41.864;-88.124;2023-03-15T04:03:29;99996.09;;;-5.40;70.33
46642;BME280;32370;41.864;-88.124;2023-03-15T04:05:58;99991.62;;;-5.28;69.54
46642;BME280;32370;41.864;-88.124;2023-03-15T04:08:26;99985.36;;;-5.14;68.44
46642;BME280;32370;41.864;-88.124;2023-03-15T04:10:55;99987.88;;;-4.64;67.47
46642;BME280;32370;41.864;-88.124;2023-03-15T04:13:24;99987.03;;;-4.69;67.08
46642;BME280;32370;41.864;-88.124;2023-03-15T04:15:52;99982.87;;;-4.76;67.47
46642;BME280;32370;41.864;-88.124;2023-03-15T04:18:20;99976.80;;;-4.81;67.02
46642;BME280;32370;41.864;-88.124;2023-03-15T04:20:48;99969.79;;;-5.36;69.42
46642;BME280;32370;41.864;-88.124;2023-03-15T04:23:17;99971.17;;;-5.60;70.07
46642;BME280;32370;41.864;-88.124;2023-03-15T04:25:47;99981.41;;;-5.67;70.31
46642;BME280;32370;41.864;-88.124;2023-03-15T04:28:15;99980.91;;;-5.69;70.57
46642;BME280;32370;41.864;-88.124;2023-03-15T04:30:44;99976.33;;;-5.67;70.68
46642;BME280;32370;41.864;-88.124;2023-03-15T04:33:16;99974.48;;;-5.65;70.85
46642;BME280;32370;41.864;-88.124;2023-03-15T04:35:44;99973.92;;;-5.57;71.74
46642;BME280;32370;41.864;-88.124;2023-03-15T04:38:12;99972.44;;;-5.87;72.09
46642;BME280;32370;41.864;-88.124;2023-03-15T04:40:40;99972.61;;;-5.56;71.89
46642;BME280;32370;41.864;-88.124;2023-03-15T04:43:08;99968.59;;;-5.52;71.39
46642;BME280;32370;41.864;-88.124;2023-03-15T04:45:36;99959.70;;;-5.60;70.74
46642;BME280;32370;41.864;-88.124;2023-03-15T04:48:04;99961.43;;;-5.75;71.36
46642;BME280;32370;41.864;-88.124;2023-03-15T04:50:32;99971.94;;;-5.54;71.40
46642;BME280;32370;41.864;-88.124;2023-03-15T04:53:00;99966.99;;;-5.74;71.32
46642;BME280;32370;41.864;-88.124;2023-03-15T04:55:28;99958.52;;;-5.28;70.69
46642;BME280;32370;41.864;-88.124;2023-03-15T04:57:56;99956.65;;;-5.71;71.24
46642;BME280;32370;41.864;-88.124;2023-03-15T05:00:24;99951.34;;;-5.78;72.24
46642;BME280;32370;41.864;-88.124;2023-03-15T05:02:53;99945.55;;;-5.61;72.65
46642;BME280;32370;41.864;-88.124;2023-03-15T05:05:21;99942.67;;;-5.98;72.43
46642;BME280;32370;41.864;-88.124;2023-03-15T05:07:50;99943.10;;;-5.61;72.80
46642;BME280;32370;41.864;-88.124;2023-03-15T05:10:18;99943.03;;;-5.52;72.57
46642;BME280;32370;41.864;-88.124;2023-03-15T05:12:46;99937.99;;;-5.75;72.62
46642;BME280;32370;41.864;-88.124;2023-03-15T05:15:14;99936.01;;;-5.81;72.19
46642;BME280;32370;41.864;-88.124;2023-03-15T05:17:42;99936.77;;;-5.64;71.49
46642;BME280;32370;41.864;-88.124;2023-03-15T05:20:14;99939.00;;;-5.92;72.35
46642;BME280;32370;41.864;-88.124;2023-03-15T05:22:43;99938.89;;;-5.78;72.76
46642;BME280;32370;41.864;-88.124;2023-03-15T05:25:12;99936.53;;;-6.23;73.84
46642;BME280;32370;41.864;-88.124;2023-03-15T05:27:40;99938.47;;;-6.15;76.26
46642;BME280;32370;41.864;-88.124;2023-03-15T05:30:09;99935.74;;;-6.43;76.65
46642;BME280;32370;41.864;-88.124;2023-03-15T05:32:37;99936.63;;;-6.35;76.30
46642;BME280;32370;41.864;-88.124;2023-03-15T05:35:07;99942.34;;;-6.03;74.64
46642;BME280;32370;41.864;-88.124;2023-03-15T05:37:35;99945.80;;;-6.58;75.17
46642;BME280;32370;41.864;-88.124;2023-03-15T05:40:04;99947.07;;;-6.42;75.48
46642;BME280;32370;41.864;-88.124;2023-03-15T05:42:33;99947.19;;;-6.02;75.03
46642;BME280;32370;41.864;-88.124;2023-03-15T05:45:00;99933.62;;;-6.02;74.65
46642;BME280;32370;41.864;-88.124;2023-03-15T05:47:29;99927.47;;;-5.86;73.84
46642;BME280;32370;41.864;-88.124;2023-03-15T05:49:57;99927.08;;;-5.80;73.48
46642;BME280;32370;41.864;-88.124;2023-03-15T05:52:25;99919.61;;;-6.16;73.66
46642;BME280;32370;41.864;-88.124;2023-03-15T05:54:53;99924.13;;;-5.89;73.08
46642;BME280;32370;41.864;-88.124;2023-03-15T05:57:21;99931.71;;;-6.30;75.60
46642;BME280;32370;41.864;-88.124;2023-03-15T05:59:49;99916.90;;;-6.45;76.40
46642;BME280;32370;41.864;-88.124;2023-03-15T06:02:17;99910.04;;;-6.51;76.02
46642;BME280;32370;41.864;-88.124;2023-03-15T06:04:45;99913.45;;;-6.80;77.95
46642;BME280;32370;41.864;-88.124;2023-03-15T06:07:13;99912.23;;;-6.91;79.28
46642;BME280;32370;41.864;-88.124;2023-03-15T06:09:42;99907.74;;;-6.64;77.66
46642;BME280;32370;41.864;-88.124;2023-03-15T06:12:10;99903.29;;;-6.08;76.31
46642;BME280;32370;41.864;-88.124;2023-03-15T06:14:38;99896.92;;;-6.56;76.56
46642;BME280;32370;41.864;-88.124;2023-03-15T06:17:06;99900.11;;;-6.85;78.36
46642;BME280;32370;41.864;-88.124;2023-03-15T06:19:34;99901.45;;;-6.73;78.01
46642;BME280;32370;41.864;-88.124;2023-03-15T06:22:02;99901.41;;;-6.67;77.91
46642;BME280;32370;41.864;-88.124;2023-03-15T06:24:30;99901.41;;;-6.52;77.26
46642;BME280;32370;41.864;-88.124;2023-03-15T06:26:58;99894.30;;;-6.39;76.61
46642;BME280;32370;41.864;-88.124;2023-03-15T06:29:26;99889.11;;;-6.16;75.48
46642;BME280;32370;41.864;-88.124;2023-03-15T06:31:54;99894.74;;;-6.27;75.28
46642;BME280;32370;41.864;-88.124;2023-03-15T06:34:22;99894.63;;;-6.23;74.96
46642;BME280;32370;41.864;-88.124;2023-03-15T06:36:51;99897.38;;;-6.23;74.55
46642;BME280;32370;41.864;-88.124;2023-03-15T06:39:19;99897.50;;;-6.59;75.91
46642;BME280;32370;41.864;-88.124;2023-03-15T06:41:47;99903.59;;;-6.82;77.45
46642;BME280;32370;41.864;-88.124;2023-03-15T06:44:15;99906.10;;;-7.20;79.74
46642;BME280;32370;41.864;-88.124;2023-03-15T06:46:43;99903.80;;;-6.79;77.70
46642;BME280;32370;41.864;-88.124;2023-03-15T06:49:11;99904.11;;;-7.17;79.41
46642;BME280;32370;41.864;-88.124;2023-03-15T06:51:39;99904.44;;;-7.05;80.38
46642;BME280;32370;41.864;-88.124;2023-03-15T06:54:07;99898.36;;;-7.21;79.79
46642;BME280;32370;41.864;-88.124;2023-03-15T06:56:35;99902.30;;;-6.62;78.29
46642;BME280;32370;41.864;-88.124;2023-03-15T06:59:04;99913.81;;;-6.99;79.84
46642;BME280;32370;41.864;-88.124;2023-03-15T07:01:33;99918.99;;;-7.34;82.27
46642;BME280;32370;41.864;-88.124;2023-03-15T07:04:01;99922.08;;;-7.80;83.60
46642;BME280;32370;41.864;-88.124;2023-03-15T07:06:29;99924.15;;;-8.16;85.76
46642;BME280;32370;41.864;-88.124;2023-03-15T07:08:57;99931.26;;;-8.04;87.27
46642;BME280;32370;41.864;-88.124;2023-03-15T07:11:25;99935.53;;;-7.26;86.51
46642;BME280;32370;41.864;-88.124;2023-03-15T07:13:53;99937.39;;;-7.30;85.54
46642;BME280;32370;41.864;-88.124;2023-03-15T07:16:21;99930.50;;;-6.96;84.30
46642;BME280;32370;41.864;-88.124;2023-03-15T07:18:49;99927.48;;;-6.96;82.94
46642;BME280;32370;41.864;-88.124;2023-03-15T07:21:17;99931.48;;;-7.15;82.55
46642;BME280;32370;41.864;-88.124;2023-03-15T07:23:45;99931.68;;;-7.41;81.59
46642;BME280;32370;41.864;-88.124;2023-03-15T07:26:13;99930.32;;;-7.10;83.43
46642;BME280;32370;41.864;-88.124;2023-03-15T07:28:42;99928.32;;;-7.66;84.70
46642;BME280;32370;41.864;-88.124;2023-03-15T07:31:10;99933.53;;;-7.71;85.93
46642;BME280;32370;41.864;-88.124;2023-03-15T07:33:39;99933.55;;;-7.93;86.74
46642;BME280;32370;41.864;-88.124;2023-03-15T07:36:07;99920.87;;;-7.84;87.03
46642;BME280;32370;41.864;-88.124;2023-03-15T07:38:36;99916.30;;;-7.70;85.45
46642;BME280;32370;41.864;-88.124;2023-03-15T07:41:04;99918.71;;;-7.44;84.39
46642;BME280;32370;41.864;-88.124;2023-03-15T07:43:33;99922.05;;;-7.08;83.38
46642;BME280;32370;41.864;-88.124;2023-03-15T07:46:01;99914.87;;;-6.87;81.91
46642;BME280;32370;41.864;-88.124;2023-03-15T07:48:30;99910.84;;;-7.18;81.64
46642;BME280;32370;41.864;-88.124;2023-03-15T07:50:58;99913.12;;;-7.14;81.55
46642;BME280;32370;41.864;-88.124;2023-03-15T07:53:26;99904.18;;;-6.78;80.41
46642;BME280;32370;41.864;-88.124;2023-03-15T07:55:54;99898.56;;;-6.92;80.39
46642;BME280;32370;41.864;-88.124;2023-03-15T07:58:22;99903.48;;;-7.16;80.81
46642;BME280;32370;41.864;-88.124;2023-03-15T08:00:53;99904.44;;;-7.17;80.69
46642;BME280;32370;41.864;-88.124;2023-03-15T08:03:21;99896.65;;;-7.25;80.99
46642;BME280;32370;41.864;-88.124;2023-03-15T08:05:49;99896.54;;;-7.46;81.66
46642;BME280;32370;41.864;-88.124;2023-03-15T08:08:18;99900.19;;;-7.51;81.73
46642;BME280;32370;41.864;-88.124;2023-03-15T08:10:46;99895.81;;;-7.76;84.13
46642;BME280;32370;41.864;-88.124;2023-03-15T08:13:14;99892.65;;;-7.76;84.10
46642;BME280;32370;41.864;-88.124;2023-03-15T08:15:45;99899.22;;;-7.51;82.92
46642;BME280;32370;41.864;-88.124;2023-03-15T08:18:12;99910.87;;;-7.77;82.94
46642;BME280;32370;41.864;-88.124;2023-03-15T08:20:41;99914.81;;;-8.07;85.50
46642;BME280;32370;41.864;-88.124;2023-03-15T08:23:09;99914.66;;;-8.38;87.20
46642;BME280;32370;41.864;-88.124;2023-03-15T08:25:38;99912.63;;;-8.27;87.24
46642;BME280;32370;41.864;-88.124;2023-03-15T08:28:06;99916.33;;;-8.03;86.11
46642;BME280;32370;41.864;-88.124;2023-03-15T08:30:34;99914.49;;;-7.98;86.00
46642;BME280;32370;41.864;-88.124;2023-03-15T08:33:03;99912.70;;;-7.37;83.65
46642;BME280;32370;41.864;-88.124;2023-03-15T08:35:31;99918.42;;;-7.55;82.61
46642;BME280;32370;41.864;-88.124;2023-03-15T08:37:59;99918.13;;;-7.50;83.29
46642;BME280;32370;41.864;-88.124;2023-03-15T08:40:29;99904.46;;;-7.77;83.57
46642;BME280;32370;41.864;-88.124;2023-03-15T08:42:58;99897.04;;;-7.70;83.11
46642;BME280;32370;41.864;-88.124;2023-03-15T08:45:27;99891.28;;;-7.68;82.89
46642;BME280;32370;41.864;-88.124;2023-03-15T08:47:55;99885.98;;;-7.75;82.89
46642;BME280;32370;41.864;-88.124;2023-03-15T08:50:23;99885.42;;;-7.36;82.47
46642;BME280;32370;41.864;-88.124;2023-03-15T08:52:52;99883.22;;;-7.60;82.49
46642;BME280;32370;41.864;-88.124;2023-03-15T08:55:20;99879.11;;;-7.88;82.62
46642;BME280;32370;41.864;-88.124;2023-03-15T08:57:49;99875.82;;;-7.82;82.41
46642;BME280;32370;41.864;-88.124;2023-03-15T09:00:18;99873.02;;;-7.51;82.22
46642;BME280;32370;41.864;-88.124;2023-03-15T09:02:47;99868.80;;;-7.83;82.09
46642;BME280;32370;41.864;-88.124;2023-03-15T09:05:15;99872.35;;;-7.84;82.31
46642;BME280;32370;41.864;-88.124;2023-03-15T09:07:43;99880.33;;;-7.72;82.04
46642;BME280;32370;41.864;-88.124;2023-03-15T09:10:13;99885.21;;;-7.65;81.66
46642;BME280;32370;41.864;-88.124;2023-03-15T09:12:43;99888.14;;;-7.64;81.35
46642;BME280;32370;41.864;-88.124;2023-03-15T09:15:11;99887.92;;;-7.58;81.15
46642;BME280;32370;41.864;-88.124;2023-03-15T09:17:40;99883.89;;;-7.90;82.24
46642;BME280;32370;41.864;-88.124;2023-03-15T09:20:12;99883.80;;;-7.99;82.17
46642;BME280;32370;41.864;-88.124;2023-03-15T09:22:39;99889.33;;;-8.33;83.84
46642;BME280;32370;41.864;-88.124;2023-03-15T09:25:08;99883.39;;;-8.33;86.49
46642;BME280;32370;41.864;-88.124;2023-03-15T09:27:36;99877.85;;;-8.45;85.87
46642;BME280;32370;41.864;-88.124;2023-03-15T09:30:06;99884.24;;;-8.42;85.97
46642;BME280;32370;41.864;-88.124;2023-03-15T09:32:34;99889.49;;;-7.98;85.52
46642;BME280;32370;41.864;-88.124;2023-03-15T09:35:04;99886.19;;;-8.29;86.09
46642;BME280;32370;41.864;-88.124;2023-03-15T09:37:33;99882.91;;;-8.02;84.74
46642;BME280;32370;41.864;-88.124;2023-03-15T09:40:01;99874.31;;;-7.93;83.79
46642;BME280;32370;41.864;-88.124;2023-03-15T09:42:39;99868.19;;;-7.43;82.73
46642;BME280;32370;41.864;-88.124;2023-03-15T09:45:16;99861.93;;;-7.38;82.68
46642;BME280;32370;41.864;-88.124;2023-03-15T09:47:52;99859.13;;;-8.27;84.37
46642;BME280;32370;41.864;-88.124;2023-03-15T09:50:26;99859.17;;;-7.85;83.81
46642;BME280;32370;41.864;-88.124;2023-03-15T09:52:58;99862.44;;;-8.37;85.67
46642;BME280;32370;41.864;-88.124;2023-03-15T09:55:29;99863.84;;;-7.73;85.64
46642;BME280;32370;41.864;-88.124;2023-03-15T09:58:00;99858.82;;;-7.77;85.32
46642;BME280;32370;41.864;-88.124;2023-03-15T10:00:34;99864.13;;;-8.04;85.65
46642;BME280;32370;41.864;-88.124;2023-03-15T10:03:04;99861.09;;;-7.56;85.40
46642;BME280;32370;41.864;-88.124;2023-03-15T10:05:39;99859.13;;;-7.59;85.53
46642;BME280;32370;41.864;-88.124;2023-03-15T10:08:11;99854.51;;;-7.85;85.40
46642;BME280;32370;41.864;-88.124;2023-03-15T10:10:45;99861.14;;;-7.99;85.24
46642;BME280;32370;41.864;-88.124;2023-03-15T10:13:23;99861.70;;;-7.85;85.02
46642;BME280;32370;41.864;-88.124;2023-03-15T10:16:01;99859.25;;;-7.70;85.10
46642;BME280;32370;41.864;-88.124;2023-03-15T10:18:41;99860.28;;;-7.45;84.70
46642;BME280;32370;41.864;-88.124;2023-03-15T10:21:20;99868.01;;;-7.53;85.22
46642;BME280;32370;41.864;-88.124;2023-03-15T10:23:53;99870.99;;;-7.51;85.06
46642;BME280;32370;41.864;-88.124;2023-03-15T10:26:24;99876.78;;;-7.77;85.21
46642;BME280;32370;41.864;-88.124;2023-03-15T10:28:54;99874.97;;;-7.46;84.81
46642;BME280;32370;41.864;-88.124;2023-03-15T10:31:25;99870.72;;;-7.35;84.68
46642;BME280;32370;41.864;-88.124;2023-03-15T10:33:53;99865.07;;;-7.51;85.02
46642;BME280;32370;41.864;-88.124;2023-03-15T10:36:23;99864.92;;;-7.67;85.22
46642;BME280;32370;41.864;-88.124;2023-03-15T10:38:51;99861.29;;;-7.59;85.10
46642;BME280;32370;41.864;-88.124;2023-03-15T10:41:38;99851.95;;;-7.10;85.11
46642;BME280;32370;41.864;-88.124;2023-03-15T10:44:12;99850.96;;;-7.82;85.53
46642;BME280;32370;41.864;-88.124;2023-03-15T10:46:40;99859.39;;;-7.47;85.38
46642;BME280;32370;41.864;-88.124;2023-03-15T10:49:10;99863.02;;;-7.59;85.30
46642;BME280;32370;41.864;-88.124;2023-03-15T10:51:41;99856.72;;;-7.46;85.18
46642;BME280;32370;41.864;-88.124;2023-03-15T10:54:15;99861.91;;;-8.01;86.10
46642;BME280;32370;41.864;-88.124;2023-03-15T10:56:46;99863.66;;;-7.38;85.36
46642;BME280;32370;41.864;-88.124;2023-03-15T10:59:17;99849.89;;;-7.51;84.91
46642;BME280;32370;41.864;-88.124;2023-03-15T11:01:47;99848.04;;;-7.27;84.76
46642;BME280;32370;41.864;-88.124;2023-03-15T11:04:18;99843.85;;;-7.13;84.64
46642;BME280;32370;41.864;-88.124;2023-03-15T11:06:49;99837.85;;;-7.58;84.67
46642;BME280;32370;41.864;-88.124;2023-03-15T11:09:19;99837.10;;;-7.61;84.97
46642;BME280;32370;41.864;-88.124;2023-03-15T11:11:58;99835.83;;;-7.23;85.00
46642;BME280;32370;41.864;-88.124;2023-03-15T11:14:34;99838.04;;;-7.18;84.44
46642;BME280;32370;41.864;-88.124;2023-03-15T11:17:05;99844.19;;;-7.11;84.23
46642;BME280;32370;41.864;-88.124;2023-03-15T11:19:38;99842.98;;;-7.37;83.74
46642;BME280;32370;41.864;-88.124;2023-03-15T11:22:11;99844.98;;;-7.14;83.70
46642;BME280;32370;41.864;-88.124;2023-03-15T11:24:40;99842.85;;;-7.53;84.18
46642;BME280;32370;41.864;-88.124;2023-03-15T11:27:12;99850.04;;;-7.90;84.52
46642;BME280;32370;41.864;-88.124;2023-03-15T11:29:45;99844.97;;;-7.31;84.62
46642;BME280;32370;41.864;-88.124;2023-03-15T11:32:16;99846.61;;;-7.67;83.96
46642;BME280;32370;41.864;-88.124;2023-03-15T11:34:49;99848.16;;;-7.15;83.67
46642;BME280;32370;41.864;-88.124;2023-03-15T11:37:22;99851.74;;;-7.34;83.53
46642;BME280;32370;41.864;-88.124;2023-03-15T11:39:54;99849.04;;;-7.08;83.41
46642;BME280;32370;41.864;-88.124;2023-03-15T11:42:28;99844.00;;;-7.50;83.09
46642;BME280;32370;41.864;-88.124;2023-03-15T11:45:02;99838.61;;;-7.11;83.30
46642;BME280;32370;41.864;-88.124;2023-03-15T11:47:40;99835.63;;;-7.20;83.63
46642;BME280;32370;41.864;-88.124;2023-03-15T11:50:13;99823.71;;;-7.30;84.39
46642;BME280;32370;41.864;-88.124;2023-03-15T11:52:42;99820.92;;;-7.55;85.43
46642;BME280;32370;41.864;-88.124;2023-03-15T11:55:19;99820.50;;;-7.48;84.90
46642;BME280;32370;41.864;-88.124;2023-03-15T11:57:48;99817.51;;;-7.17;84.37
46642;BME280;32370;41.864;-88.124;2023-03-15T12:00:25;99827.80;;;-6.94;84.35
46642;BME280;32370;41.864;-88.124;2023-03-15T12:03:29;99822.22;;;-6.85;83.85
46642;BME280;32370;41.864;-88.124;2023-03-15T12:06:01;99823.93;;;-7.02;84.26
46642;BME280;32370;41.864;-88.124;2023-03-15T12:08:46;99824.22;;;-6.92;84.08
46642;BME280;32370;41.864;-88.124;2023-03-15T12:11:37;99837.14;;;-6.56;83.92
46642;BME280;32370;41.864;-88.124;2023-03-15T12:14:24;99826.92;;;-6.78;83.44
46642;BME280;32370;41.864;-88.124;2023-03-15T12:17:42;99818.09;;;-6.02;83.61
46642;BME280;32370;41.864;-88.124;2023-03-15T12:20:19;99816.77;;;-6.54;83.72
46642;BME280;32370;41.864;-88.124;2023-03-15T12:22:51;99815.74;;;-7.00;83.27
46642;BME280;32370;41.864;-88.124;2023-03-15T12:25:22;99806.16;;;-6.75;83.73
46642;BME280;32370;41.864;-88.124;2023-03-15T12:27:54;99800.93;;;-7.23;84.36
46642;BME280;32370;41.864;-88.124;2023-03-15T12:30:30;99802.28;;;-7.05;84.25
46642;BME280;32370;41.864;-88.124;2023-03-15T12:32:59;99798.03;;;-6.62;84.30
46642;BME280;32370;41.864;-88.124;2023-03-15T12:35:32;99791.28;;;-6.49;84.29
46642;BME280;32370;41.864;-88.124;2023-03-15T12:38:11;99783.33;;;-6.13;83.76
46642;BME280;32370;41.864;-88.124;2023-03-15T12:40:50;99785.94;;;-5.88;83.14
46642;BME280;32370;41.864;-88.124;2023-03-15T12:43:38;99781.44;;;-6.31;83.24
46642;BME280;32370;41.864;-88.124;2023-03-15T12:46:07;99784.89;;;-5.87;83.05
46642;BME280;32370;41.864;-88.124;2023-03-15T12:49:30;99785.37;;;-5.60;82.71
46642;BME280;32370;41.864;-88.124;2023-03-15T12:51:59;99782.38;;;-5.28;81.89
46642;BME280;32370;41.864;-88.124;2023-03-15T12:54:36;99782.12;;;-4.94;81.29
46642;BME280;32370;41.864;-88.124;2023-03-15T12:57:08;99797.46;;;-4.45;80.63